Time;durP1;ratioP1;P1;durP2;ratioP2;P2;SDS_P1;SDS_P2;PMS_P1;PMS_P2;Temp;Humidity;BMP_temperature;BMP_pressure;BME280_temperature;BME280_humidity;BME280_pressure;Samples;Min_cycle;Max_cycle;Signal;HPM_P1;HPM_P2
2021/01/10 00:00:46;;;;;;;21.42;11.27;;;-3.90;99.90;;;;;;5082148;28;20354;-77
2021/01/10 00:03:15;;;;;;;20.95;11.20;;;-3.90;99.90;;;;;;5084223;28;20492;-78
2021/01/10 00:05:41;;;;;;;23.25;11.75;;;-3.90;99.90;;;;;;5082980;28;20040;-76
2021/01/10 00:08:07;;;;;;;21.38;11.18;;;-3.90;99.90;;;;;;5090874;28;20028;-75
2021/01/10 00:10:33;;;;;;;22.15;10.73;;;-3.90;99.90;;;;;;5091171;28;20035;-78
2021/01/10 00:13:03;;;;;;;20.00;10.15;;;-4.00;99.90;;;;;;5084410;28;20024;-79
2021/01/10 00:15:30;;;;;;;23.92;11.38;;;-4.00;99.90;;;;;;5083239;28;20448;-72
2021/01/10 00:17:55;;;;;;;21.65;11.05;;;-4.10;99.90;;;;;;5082648;28;20052;-78
2021/01/10 00:20:22;;;;;;;23.45;12.18;;;-4.10;99.90;;;;;;5084465;28;20050;-77
2021/01/10 00:22:57;;;;;;;22.77;12.25;;;-4.20;99.90;;;;;;5082258;28;20025;-78
2021/01/10 00:25:23;;;;;;;26.30;13.63;;;-4.20;99.90;;;;;;5082911;28;20070;-76
2021/01/10 00:27:49;;;;;;;26.05;13.20;;;-4.30;99.90;;;;;;5082452;28;20028;-79
2021/01/10 00:30:17;;;;;;;29.73;13.25;;;-4.30;99.90;;;;;;5084536;28;20082;-77
2021/01/10 00:32:53;;;;;;;28.10;14.90;;;-4.40;99.90;;;;;;5082357;28;20020;-75
2021/01/10 00:35:20;;;;;;;34.20;16.48;;;-4.40;99.90;;;;;;5064335;28;20107;-74
2021/01/10 00:37:48;;;;;;;31.67;16.23;;;-4.40;99.90;;;;;;5082533;28;20809;-77
2021/01/10 00:40:14;;;;;;;35.58;16.30;;;-4.50;99.90;;;;;;5084174;28;20033;-75
2021/01/10 00:42:41;;;;;;;42.15;18.90;;;-4.50;99.90;;;;;;5080071;28;20066;-79
2021/01/10 00:45:08;;;;;;;44.45;19.60;;;-4.50;99.90;;;;;;5083513;28;20451;-74
2021/01/10 00:47:33;;;;;;;39.05;19.02;;;-4.40;99.90;;;;;;5064980;28;20448;-75
2021/01/10 00:49:59;;;;;;;39.80;19.42;;;-4.40;99.90;;;;;;5081866;28;20025;-74
2021/01/10 00:52:28;;;;;;;40.75;19.52;;;-4.40;99.90;;;;;;5083457;28;20400;-78
2021/01/10 00:54:54;;;;;;;39.08;19.63;;;-4.30;99.90;;;;;;5083636;28;20027;-76
2021/01/10 00:57:19;;;;;;;41.47;20.17;;;-4.30;99.90;;;;;;5081767;28;20024;-75
2021/01/10 00:59:45;;;;;;;41.05;19.02;;;-4.30;99.90;;;;;;5083040;28;20354;-78
2021/01/10 01:02:15;;;;;;;45.45;20.50;;;-4.20;99.90;;;;;;5083760;28;20043;-77
2021/01/10 01:04:41;;;;;;;42.05;20.58;;;-4.20;99.90;;;;;;5081287;28;20016;-77
2021/01/10 01:07:06;;;;;;;42.85;21.05;;;-4.10;99.90;;;;;;5082262;28;20055;-78
2021/01/10 01:09:32;;;;;;;43.38;21.48;;;-4.00;99.90;;;;;;5081037;28;20047;-77
2021/01/10 01:11:59;;;;;;;41.08;21.05;;;-4.00;99.90;;;;;;5083044;28;20129;-78
2021/01/10 01:14:26;;;;;;;51.33;23.65;;;-3.90;99.90;;;;;;5081700;28;20423;-77
2021/01/10 01:16:51;;;;;;;48.47;22.35;;;-3.90;99.90;;;;;;5081363;28;20050;-79
2021/01/10 01:19:17;;;;;;;42.97;21.95;;;-3.80;99.90;;;;;;5083115;28;20337;-77
2021/01/10 01:21:43;;;;;;;45.45;21.77;;;-3.80;99.90;;;;;;5080839;28;20106;-78
2021/01/10 01:24:09;;;;;;;47.50;22.83;;;-3.70;99.90;;;;;;5081729;28;20032;-79
2021/01/10 01:26:35;;;;;;;46.67;23.70;;;-3.60;99.90;;;;;;5082743;28;20029;-78
2021/01/10 01:29:00;;;;;;;47.60;22.90;;;-3.60;99.90;;;;;;5081338;28;20142;-78
2021/01/10 01:31:29;;;;;;;49.28;24.52;;;-3.50;99.90;;;;;;5064684;28;20373;-78
2021/01/10 01:33:55;;;;;;;41.17;22.52;;;-3.50;99.90;;;;;;5082361;28;20025;-76
2021/01/10 01:36:24;;;;;;;48.28;23.85;;;-3.40;99.90;;;;;;5082081;28;20021;-80
2021/01/10 01:38:51;;;;;;;45.08;23.58;;;-3.40;99.90;;;;;;5081381;28;20089;-74
2021/01/10 01:41:16;;;;;;;44.78;22.58;;;-3.40;99.90;;;;;;5082833;28;20055;-79
2021/01/10 01:43:42;;;;;;;42.88;21.45;;;-3.40;99.90;;;;;;5080273;28;20064;-78
2021/01/10 01:46:10;;;;;;;42.88;22.05;;;-3.40;99.90;;;;;;5082119;28;20473;-79
2021/01/10 01:48:40;;;;;;;42.60;22.20;;;-3.40;99.90;;;;;;5081776;28;20069;-78
2021/01/10 01:51:07;;;;;;;41.53;20.48;;;-3.40;99.90;;;;;;5081305;28;20021;-76
2021/01/10 01:53:33;;;;;;;39.05;20.10;;;-3.40;99.90;;;;;;5080057;28;20055;-78
2021/01/10 01:55:59;;;;;;;40.17;19.67;;;-3.40;99.90;;;;;;5082230;28;20370;-79
2021/01/10 01:58:26;;;;;;;38.17;19.00;;;-3.40;99.90;;;;;;5080585;28;20432;-76
2021/01/10 02:00:53;;;;;;;38.03;18.75;;;-3.40;99.90;;;;;;5081375;28;20024;-76
2021/01/10 02:03:29;;;;;;;35.55;18.40;;;-3.40;99.90;;;;;;5084961;28;20032;-79
2021/01/10 02:05:59;;;;;;;38.35;19.95;;;-3.40;99.90;;;;;;5092483;28;20048;-79
2021/01/10 02:08:32;;;;;;;40.47;20.55;;;-3.50;99.90;;;;;;5076967;28;20076;-79
2021/01/10 02:11:00;;;;;;;38.90;19.25;;;-3.50;99.90;;;;;;5072253;28;20025;-80
2021/01/10 02:13:31;;;;;;;38.22;19.50;;;-3.50;99.90;;;;;;5079199;28;20039;-78
2021/01/10 02:16:00;;;;;;;37.97;19.73;;;-3.50;99.90;;;;;;5080595;28;20458;-77
2021/01/10 02:18:28;;;;;;;36.25;19.25;;;-3.60;99.90;;;;;;5081184;28;20480;-76
2021/01/10 02:21:00;;;;;;;32.13;17.48;;;-3.60;99.90;;;;;;5081597;28;20479;-78
2021/01/10 02:23:28;;;;;;;38.35;18.85;;;-3.70;99.90;;;;;;5081647;28;20347;-77
2021/01/10 02:25:56;;;;;;;39.83;20.15;;;-3.70;99.90;;;;;;5061813;28;20020;-76
2021/01/10 02:28:24;;;;;;;36.70;18.08;;;-3.80;99.90;;;;;;5081001;28;20042;-78
2021/01/10 02:30:53;;;;;;;40.28;19.73;;;-3.90;99.90;;;;;;5081161;28;20104;-78
2021/01/10 02:33:35;;;;;;;38.28;18.73;;;-4.00;99.90;;;;;;5080335;28;20031;-79
2021/01/10 02:36:08;;;;;;;38.20;18.55;;;-4.10;99.90;;;;;;5080460;28;20431;-77
2021/01/10 02:38:38;;;;;;;39.53;19.63;;;-4.20;99.90;;;;;;5078618;28;20021;-78
2021/01/10 02:41:22;;;;;;;;;;;-4.30;99.90;;;;;;5081031;28;20032;-80
2021/01/10 02:44:19;;;;;;;43.78;19.45;;;-4.30;99.90;;;;;;5080589;28;20123;-78
2021/01/10 02:46:53;;;;;;;32.55;16.50;;;-4.30;99.90;;;;;;5080202;28;20020;-79
2021/01/10 02:49:20;;;;;;;36.78;16.92;;;-4.30;99.90;;;;;;5080432;28;20039;-77
2021/01/10 02:51:47;;;;;;;33.15;16.63;;;-4.30;99.90;;;;;;5080085;28;20111;-78
2021/01/10 02:54:14;;;;;;;34.35;15.77;;;-4.30;99.90;;;;;;5081773;28;20028;-76
2021/01/10 02:56:52;;;;;;;32.10;16.33;;;-4.30;99.90;;;;;;5079386;28;20078;-77
2021/01/10 02:59:24;;;;;;;30.58;14.68;;;-4.40;99.90;;;;;;5081177;28;20020;-79
2021/01/10 03:01:54;;;;;;;30.70;15.38;;;-4.40;99.90;;;;;;5080836;28;20080;-78
2021/01/10 03:04:21;;;;;;;31.35;14.88;;;-4.40;99.90;;;;;;5081448;28;20051;-76
2021/01/10 03:06:48;;;;;;;35.08;15.57;;;-4.40;99.90;;;;;;5081143;28;20097;-79
2021/01/10 03:09:15;;;;;;;29.25;13.93;;;-4.40;99.90;;;;;;5061630;28;20039;-75
2021/01/10 03:11:41;;;;;;;29.42;14.77;;;-4.40;99.90;;;;;;5079912;28;20077;-77
2021/01/10 03:14:07;;;;;;;29.65;13.63;;;-4.40;99.90;;;;;;5080849;28;20025;-77
2021/01/10 03:16:33;;;;;;;27.67;13.75;;;-4.40;99.90;;;;;;5078583;28;20078;-75
2021/01/10 03:18:59;;;;;;;30.42;14.02;;;-4.50;99.90;;;;;;5081002;28;20071;-74
2021/01/10 03:21:25;;;;;;;27.92;12.48;;;-4.50;99.90;;;;;;5080731;28;20464;-78
2021/01/10 03:23:51;;;;;;;26.27;12.38;;;-4.60;99.90;;;;;;5078639;28;20117;-75
2021/01/10 03:26:16;;;;;;;29.63;13.63;;;-4.70;99.90;;;;;;5081318;28;20029;-75
2021/01/10 03:28:42;;;;;;;31.25;14.90;;;-4.70;99.90;;;;;;5059818;28;20016;-77
2021/01/10 03:31:09;;;;;;;29.25;14.27;;;-4.80;99.90;;;;;;5081043;28;20081;-74
2021/01/10 03:33:35;;;;;;;32.13;15.82;;;-4.80;99.90;;;;;;5084873;28;20033;-75
2021/01/10 03:36:01;;;;;;;34.40;14.38;;;-4.80;99.90;;;;;;5091428;28;20074;-77
2021/01/10 03:38:28;;;;;;;32.15;16.67;;;-4.80;99.90;;;;;;5091606;28;20028;-79
2021/01/10 03:40:54;;;;;;;27.10;13.80;;;-4.70;99.90;;;;;;5091132;28;20116;-74
2021/01/10 03:43:20;;;;;;;30.73;14.48;;;-4.70;99.90;;;;;;5091619;28;20078;-75
2021/01/10 03:45:45;;;;;;;32.00;13.82;;;-4.70;99.90;;;;;;5090828;28;20024;-77
2021/01/10 03:48:11;;;;;;;28.75;13.13;;;-4.70;99.90;;;;;;5091426;28;20031;-77
2021/01/10 03:50:37;;;;;;;30.45;14.27;;;-4.70;99.90;;;;;;5072586;28;20078;-74
2021/01/10 03:53:02;;;;;;;29.25;14.85;;;-4.70;99.90;;;;;;5091796;28;20052;-76
2021/01/10 03:55:28;;;;;;;26.20;14.18;;;-4.60;99.90;;;;;;5091493;28;20039;-73
2021/01/10 03:57:54;;;;;;;28.85;14.25;;;-4.60;99.90;;;;;;5090940;28;20480;-77
2021/01/10 04:00:19;;;;;;;28.33;13.35;;;-4.50;99.90;;;;;;5091479;28;20078;-75
2021/01/10 04:02:45;;;;;;;25.05;13.05;;;-4.50;99.90;;;;;;5090399;28;20040;-77
2021/01/10 04:05:11;;;;;;;30.98;14.82;;;-4.50;99.90;;;;;;5091792;28;20032;-74
2021/01/10 04:07:36;;;;;;;30.05;14.88;;;-4.50;99.90;;;;;;5080580;28;20068;-78
2021/01/10 04:10:04;;;;;;;30.02;14.52;;;-4.40;99.90;;;;;;5071145;28;20028;-74
2021/01/10 04:12:30;;;;;;;28.45;14.55;;;-4.40;99.90;;;;;;5070885;28;20074;-73
2021/01/10 04:14:56;;;;;;;29.75;14.90;;;-4.40;99.90;;;;;;5070720;28;20044;-78
2021/01/10 04:17:25;;;;;;;30.85;15.02;;;-4.30;99.90;;;;;;5072002;28;20366;-75
2021/01/10 04:19:54;;;;;;;31.13;14.73;;;-4.30;99.90;;;;;;5073930;28;20075;-74
2021/01/10 04:22:20;;;;;;;34.17;14.48;;;-4.20;99.90;;;;;;5074795;28;20047;-74
2021/01/10 04:24:46;;;;;;;29.75;14.98;;;-4.20;99.90;;;;;;5073805;28;20070;-74
2021/01/10 04:27:12;;;;;;;29.95;15.07;;;-4.10;99.90;;;;;;5074499;28;20020;-78
2021/01/10 04:29:38;;;;;;;30.88;15.45;;;-4.10;99.90;;;;;;5073939;28;20436;-78
2021/01/10 04:32:03;;;;;;;26.38;14.02;;;-4.00;99.90;;;;;;5074498;28;20025;-79
2021/01/10 04:34:29;;;;;;;35.28;16.45;;;-3.90;99.90;;;;;;5056460;28;20032;-76
2021/01/10 04:36:55;;;;;;;33.20;16.52;;;-3.80;99.90;;;;;;5073954;28;20077;-78
2021/01/10 04:39:20;;;;;;;29.73;16.05;;;-3.60;99.90;;;;;;5074668;28;20025;-73
2021/01/10 04:41:46;;;;;;;30.27;16.23;;;-3.60;99.90;;;;;;5074086;28;20029;-78
2021/01/10 04:44:13;;;;;;;32.60;16.88;;;-3.60;99.90;;;;;;5074457;28;20055;-75
2021/01/10 04:46:40;;;;;;;33.70;16.30;;;-3.60;99.90;;;;;;5073965;28;20328;-76
2021/01/10 04:49:06;;;;;;;29.17;14.93;;;-3.60;99.90;;;;;;5074452;28;20483;-76
2021/01/10 04:51:34;;;;;;;29.73;16.10;;;-3.50;99.90;;;;;;5073593;28;20419;-72
2021/01/10 04:54:02;;;;;;;28.80;15.48;;;-3.50;99.90;;;;;;5074547;28;20120;-76
2021/01/10 04:56:29;;;;;;;31.98;15.40;;;-3.50;99.90;;;;;;5056571;28;20028;-78
2021/01/10 04:59:00;;;;;;;28.70;15.27;;;-3.50;99.90;;;;;;5073260;28;20028;-76
2021/01/10 05:01:44;;;;;;;29.05;15.23;;;-3.40;99.90;;;;;;5074196;28;20024;-75
2021/01/10 05:04:09;;;;;;;31.63;15.70;;;-3.30;99.90;;;;;;5074087;28;20367;-75
2021/01/10 05:06:36;;;;;;;29.23;14.98;;;-3.30;99.90;;;;;;5076397;28;20044;-75
2021/01/10 05:09:07;;;;;;;30.67;16.08;;;-3.30;99.90;;;;;;5094512;28;20445;-79
2021/01/10 05:11:36;;;;;;;26.65;15.15;;;-3.30;99.90;;;;;;5093742;28;20024;-72
2021/01/10 05:14:03;;;;;;;28.10;14.95;;;-3.30;99.90;;;;;;5094097;28;20036;-74
2021/01/10 05:16:33;;;;;;;28.90;14.55;;;-3.30;99.90;;;;;;5094107;28;20039;-80
2021/01/10 05:19:00;;;;;;;31.27;14.00;;;-3.20;99.90;;;;;;5093889;28;20031;-77
2021/01/10 05:21:26;;;;;;;31.33;14.15;;;-3.20;99.90;;;;;;5093846;28;20099;-77
2021/01/10 05:23:56;;;;;;;29.35;14.52;;;-3.20;99.90;;;;;;5092604;28;20135;-76
2021/01/10 05:26:23;;;;;;;26.25;14.18;;;-3.20;99.90;;;;;;5093775;28;20102;-74
2021/01/10 05:28:49;;;;;;;27.92;14.50;;;-3.20;99.90;;;;;;5092045;28;20081;-74
2021/01/10 05:31:31;;;;;;;32.65;14.85;;;-3.20;99.90;;;;;;5093555;28;20063;-75
2021/01/10 05:33:56;;;;;;;28.55;15.35;;;-3.30;99.90;;;;;;5092947;28;20089;-76
2021/01/10 05:36:32;;;;;;;25.85;14.25;;;-3.30;99.90;;;;;;5093495;28;20377;-76
2021/01/10 05:39:17;;;;;;;29.67;14.45;;;-3.30;99.90;;;;;;5093150;28;20458;-74
2021/01/10 05:41:56;;;;;;;28.63;14.65;;;-3.20;99.90;;;;;;5092389;28;20039;-76
2021/01/10 05:44:23;;;;;;;29.70;14.75;;;-3.30;99.90;;;;;;5093026;28;20051;-77
2021/01/10 05:46:49;;;;;;;27.63;13.98;;;-3.20;99.90;;;;;;5092385;28;20362;-76
2021/01/10 05:49:19;;;;;;;28.52;14.40;;;-3.20;99.90;;;;;;5093281;28;20111;-77
2021/01/10 05:51:46;;;;;;;25.58;14.00;;;-3.20;99.90;;;;;;5092343;28;20028;-75
2021/01/10 05:54:33;;;;;;;25.40;13.43;;;-3.20;99.90;;;;;;5093370;28;20380;-76
2021/01/10 05:57:01;;;;;;;26.40;14.23;;;-3.20;99.90;;;;;;5092558;28;20032;-74
2021/01/10 05:59:29;;;;;;;27.15;14.45;;;-3.30;99.90;;;;;;5074770;28;20032;-75
2021/01/10 06:01:55;;;;;;;38.03;16.52;;;-3.30;99.90;;;;;;5092114;28;20044;-76
2021/01/10 06:04:23;;;;;;;39.47;16.90;;;-3.30;99.90;;;;;;5093188;28;20111;-74
2021/01/10 06:06:48;;;;;;;33.22;16.38;;;-3.30;99.90;;;;;;5088622;28;20070;-74
2021/01/10 06:09:14;;;;;;;32.38;16.40;;;-3.30;99.90;;;;;;5072700;28;20035;-75
2021/01/10 06:11:40;;;;;;;32.70;15.05;;;-3.30;99.90;;;;;;5071858;28;20028;-75
2021/01/10 06:14:06;;;;;;;27.40;14.85;;;-3.20;99.90;;;;;;5072336;28;20390;-76
2021/01/10 06:16:36;;;;;;;30.75;14.88;;;-3.20;99.90;;;;;;5072189;28;20472;-79
2021/01/10 06:19:11;;;;;;;;;;;-3.10;99.90;;;;;;5054672;28;20470;-73
2021/01/10 06:21:37;;;;;;;25.10;12.88;;;-3.10;99.90;;;;;;5054015;28;19999;-72
2021/01/10 06:24:04;;;;;;;29.85;15.00;;;-3.10;99.90;;;;;;5072434;28;20045;-77
2021/01/10 06:26:33;;;;;;;27.42;14.10;;;-3.10;99.90;;;;;;5072545;28;20111;-74
2021/01/10 06:29:01;;;;;;;27.95;14.27;;;-3.10;99.90;;;;;;5071319;28;20024;-76
2021/01/10 06:31:32;;;;;;;26.13;14.23;;;-3.10;99.90;;;;;;5071956;28;20016;-76
2021/01/10 06:34:09;;;;;;;27.42;14.18;;;-3.10;99.90;;;;;;5073277;28;20047;-75
2021/01/10 06:36:39;;;;;;;24.00;13.65;;;-3.10;99.90;;;;;;5080942;28;20025;-72
2021/01/10 06:39:16;;;;;;;25.15;13.65;;;-3.10;99.90;;;;;;5079605;28;20477;-73
2021/01/10 06:41:56;;;;;;;25.45;13.25;;;-3.10;99.90;;;;;;5079020;28;20028;-75
2021/01/10 06:44:23;;;;;;;26.05;13.23;;;-3.10;99.90;;;;;;5079519;28;20033;-77
2021/01/10 06:46:50;;;;;;;26.20;13.50;;;-3.10;99.90;;;;;;5080271;28;20032;-78
2021/01/10 06:49:16;;;;;;;26.23;13.25;;;-3.10;99.90;;;;;;5080947;28;20436;-77
2021/01/10 06:51:44;;;;;;;25.65;13.90;;;-3.10;99.90;;;;;;5060749;28;20032;-79
2021/01/10 06:54:10;;;;;;;26.17;14.68;;;-3.10;99.90;;;;;;5063235;28;20035;-76
2021/01/10 06:56:37;;;;;;;25.55;13.50;;;-3.10;99.90;;;;;;5078835;28;20355;-72
2021/01/10 06:59:14;;;;;;;26.67;13.57;;;-3.10;99.90;;;;;;5091896;28;20047;-78
2021/01/10 07:01:49;;;;;;;26.15;14.05;;;-3.10;99.90;;;;;;5090784;28;20136;-78
2021/01/10 07:04:15;;;;;;;26.92;14.35;;;-3.10;99.90;;;;;;5091965;28;20058;-76
2021/01/10 07:06:52;;;;;;;24.42;14.30;;;-3.10;99.90;;;;;;5071153;28;20492;-78
2021/01/10 07:09:19;;;;;;;26.33;14.25;;;-3.10;99.90;;;;;;5071816;28;20435;-73
2021/01/10 07:11:46;;;;;;;29.08;14.82;;;-3.10;99.90;;;;;;5070823;28;20025;-77
2021/01/10 07:14:12;;;;;;;26.92;13.98;;;-3.10;99.90;;;;;;5072239;28;20032;-77
2021/01/10 07:16:40;;;;;;;25.48;13.52;;;-3.10;99.90;;;;;;5080313;28;20149;-73
2021/01/10 07:19:08;;;;;;;25.52;14.55;;;-3.10;99.90;;;;;;5081990;28;20033;-76
2021/01/10 07:21:36;;;;;;;28.77;14.48;;;-3.10;99.90;;;;;;5081401;28;20032;-77
2021/01/10 07:24:15;;;;;;;23.25;12.70;;;-3.10;99.90;;;;;;5079674;28;20028;-77
2021/01/10 07:26:47;;;;;;;24.65;13.02;;;-3.10;99.90;;;;;;5079801;28;20469;-76
2021/01/10 07:29:30;;;;;;;26.17;13.35;;;-3.10;99.90;;;;;;5078588;28;20044;-78
2021/01/10 07:32:14;;;;;;;28.27;14.63;;;-3.10;99.90;;;;;;5078859;28;20118;-75
2021/01/10 07:34:46;;;;;;;28.85;15.35;;;-3.10;99.90;;;;;;5079090;28;20431;-73
2021/01/10 07:37:26;;;;;;;27.92;14.52;;;-3.00;99.90;;;;;;5061357;28;20119;-76
2021/01/10 07:39:57;;;;;;;26.10;13.95;;;-3.00;99.90;;;;;;5085527;28;20036;-78
2021/01/10 07:42:33;;;;;;;26.95;14.57;;;-3.00;99.90;;;;;;5071556;28;20082;-76
2021/01/10 07:45:02;;;;;;;29.10;15.80;;;-3.00;99.90;;;;;;5071094;28;20094;-74
2021/01/10 07:47:34;;;;;;;24.10;13.32;;;-3.00;99.90;;;;;;5071471;28;20036;-73
2021/01/10 07:50:01;;;;;;;27.52;15.00;;;-3.00;99.90;;;;;;5070852;28;20027;-77
2021/01/10 07:52:59;;;;;;;30.17;15.98;;;-3.00;99.90;;;;;;5072552;28;20029;-78
2021/01/10 07:55:28;;;;;;;27.48;14.55;;;-2.90;99.90;;;;;;5040532;28;20115;-79
2021/01/10 07:58:03;;;;;;;27.70;14.87;;;-2.90;99.90;;;;;;5073944;28;20089;-78
2021/01/10 08:00:31;;;;;;;28.92;14.90;;;-2.90;99.90;;;;;;5074998;28;20074;-78
2021/01/10 08:03:06;;;;;;;27.65;14.68;;;-2.80;99.90;;;;;;5073041;28;20051;-79
2021/01/10 08:05:37;;;;;;;26.40;14.30;;;-2.80;99.90;;;;;;5074910;28;20044;-80
2021/01/10 08:08:15;;;;;;;23.63;12.93;;;-2.80;99.90;;;;;;5087681;28;20073;-79
2021/01/10 08:10:54;;;;;;;27.63;15.20;;;-2.70;99.90;;;;;;5094094;28;20024;-77
2021/01/10 08:13:27;;;;;;;25.05;13.93;;;-2.70;99.90;;;;;;5094935;28;20063;-79
2021/01/10 08:15:58;;;;;;;25.98;14.15;;;-2.60;99.90;;;;;;5094017;28;20052;-80
2021/01/10 08:18:30;;;;;;;26.48;13.35;;;-2.60;99.90;;;;;;5094733;28;20035;-77
2021/01/10 08:20:56;;;;;;;21.42;13.10;;;-2.50;99.90;;;;;;5094272;28;20112;-78
2021/01/10 08:23:23;;;;;;;26.95;14.68;;;-2.50;99.90;;;;;;5076473;28;20045;-74
2021/01/10 08:25:51;;;;;;;22.73;13.85;;;-2.40;99.90;;;;;;5075778;28;20067;-79
2021/01/10 08:28:18;;;;;;;24.05;13.63;;;-2.40;99.90;;;;;;5094957;28;20018;-78
2021/01/10 08:30:46;;;;;;;25.85;14.80;;;-2.30;99.90;;;;;;5093939;28;20024;-80
2021/01/10 08:33:19;;;;;;;26.02;14.88;;;-2.20;99.90;;;;;;5076756;28;20032;-76
2021/01/10 08:35:46;;;;;;;25.65;14.38;;;-2.20;99.90;;;;;;5093938;28;20020;-75
2021/01/10 08:38:12;;;;;;;27.60;14.20;;;-2.10;99.90;;;;;;5091469;28;20032;-74
2021/01/10 08:40:39;;;;;;;25.42;14.27;;;-2.10;99.90;;;;;;5077937;28;20368;-73
2021/01/10 08:43:05;;;;;;;26.05;14.73;;;-2.10;99.90;;;;;;5097901;28;20112;-77
2021/01/10 08:45:31;;;;;;;26.88;14.23;;;-2.00;99.90;;;;;;5068573;28;20037;-76
2021/01/10 08:48:02;;;;;;;23.25;14.25;;;-1.90;99.90;;;;;;5073254;28;20198;-74
2021/01/10 08:50:38;;;;;;;27.50;15.20;;;-1.90;99.90;;;;;;5073631;28;20036;-76
2021/01/10 08:53:04;;;;;;;27.38;14.38;;;-1.80;99.90;;;;;;5073434;28;20039;-75
2021/01/10 08:55:41;;;;;;;28.30;14.73;;;-1.80;99.90;;;;;;5073829;28;20054;-74
2021/01/10 08:58:08;;;;;;;22.52;12.93;;;-1.70;99.90;;;;;;5074466;28;20025;-74
2021/01/10 09:00:38;;;;;;;22.20;12.80;;;-1.70;99.90;;;;;;5073957;28;20028;-75
2021/01/10 09:03:20;;;;;;;23.10;13.32;;;-1.60;99.90;;;;;;5072887;28;20082;-78
2021/01/10 09:05:49;;;;;;;27.15;14.50;;;-1.50;99.90;;;;;;5072527;28;20127;-76
2021/01/10 09:08:27;;;;;;;20.58;11.93;;;-1.50;99.90;;;;;;5088522;28;20106;-71
2021/01/10 09:11:15;;;;;;;22.48;12.77;;;-1.40;99.90;;;;;;5092958;28;20074;-76
2021/01/10 09:13:43;;;;;;;23.35;14.20;;;-1.40;99.90;;;;;;5093925;28;20047;-71
2021/01/10 09:16:14;;;;;;;23.48;13.48;;;-1.30;99.90;;;;;;5086564;28;20033;-75
2021/01/10 09:18:42;;;;;;;24.75;13.02;;;-1.40;99.90;;;;;;5073191;28;20107;-71
2021/01/10 09:21:16;;;;;;;26.67;14.82;;;-1.40;99.90;;;;;;5073859;28;20024;-76
2021/01/10 09:23:53;;;;;;;29.05;14.40;;;-1.30;99.90;;;;;;5072938;28;20115;-73
2021/01/10 09:26:29;;;;;;;26.95;14.98;;;-1.40;99.90;;;;;;5073585;28;20509;-72
2021/01/10 09:28:56;;;;;;;24.83;14.57;;;-1.40;99.90;;;;;;5072762;28;20079;-76
2021/01/10 09:31:37;;;;;;;22.65;13.10;;;-1.30;99.90;;;;;;5073218;28;20107;-73
2021/01/10 09:34:05;;;;;;;22.73;12.75;;;-1.20;99.90;;;;;;5072368;28;20552;-76
2021/01/10 09:36:31;;;;;;;23.52;13.60;;;-1.20;99.90;;;;;;5074122;28;20024;-75
2021/01/10 09:38:57;;;;;;;21.20;12.63;;;-1.20;99.90;;;;;;5074783;28;20025;-76
2021/01/10 09:41:23;;;;;;;24.95;13.27;;;-1.10;99.90;;;;;;5073075;28;20028;-75
2021/01/10 09:43:50;;;;;;;21.30;12.88;;;-1.10;99.90;;;;;;5071812;28;20043;-75
2021/01/10 09:46:34;;;;;;;21.25;11.85;;;-1.10;99.90;;;;;;5073186;28;20021;-75
2021/01/10 09:49:04;;;;;;;21.60;12.52;;;-1.10;99.90;;;;;;5072337;28;20021;-74
2021/01/10 09:51:42;;;;;;;22.98;13.38;;;-1.10;99.90;;;;;;5074931;28;20477;-72
2021/01/10 09:54:18;;;;;;;20.35;11.55;;;-1.00;99.90;;;;;;5072800;28;20060;-79
2021/01/10 09:56:45;;;;;;;22.15;12.95;;;-1.00;99.90;;;;;;5072350;28;20024;-80
2021/01/10 09:59:40;;;;;;;21.27;12.07;;;-1.00;99.90;;;;;;5072817;28;20056;-76
2021/01/10 10:02:11;;;;;;;24.27;13.57;;;-1.00;99.90;;;;;;5072489;28;20050;-76
2021/01/10 10:04:37;;;;;;;21.33;13.23;;;-1.00;99.90;;;;;;5072442;28;20032;-71
2021/01/10 10:07:06;;;;;;;21.35;13.13;;;-1.00;99.90;;;;;;5076331;28;20040;-74
2021/01/10 10:09:54;;;;;;;21.25;12.48;;;-0.90;99.90;;;;;;5092771;28;20028;-78
2021/01/10 10:12:22;;;;;;;21.73;12.10;;;-0.90;99.90;;;;;;5087753;28;20024;-72
2021/01/10 10:14:56;;;;;;;20.83;11.40;;;-0.80;99.50;;;;;;5071735;28;20029;-74
2021/01/10 10:17:27;;;;;;;21.52;11.95;;;-0.80;99.80;;;;;;5088121;28;20067;-73
2021/01/10 10:19:53;;;;;;;19.73;11.35;;;-0.70;98.30;;;;;;5091758;28;20059;-72
2021/01/10 10:22:30;;;;;;;18.20;11.43;;;-0.70;98.20;;;;;;5092909;28;20074;-73
2021/01/10 10:24:57;;;;;;;18.77;11.23;;;-0.60;97.60;;;;;;5092229;28;20031;-78
2021/01/10 10:27:24;;;;;;;17.98;11.55;;;-0.60;98.10;;;;;;5092687;28;20020;-75
2021/01/10 10:29:50;;;;;;;17.77;10.63;;;-0.60;98.60;;;;;;5091378;28;20070;-71
2021/01/10 10:32:16;;;;;;;17.88;10.63;;;-0.50;97.10;;;;;;5092923;28;20024;-79
2021/01/10 10:34:42;;;;;;;19.85;11.13;;;-0.40;96.10;;;;;;5095950;28;20034;-74
2021/01/10 10:37:08;;;;;;;23.48;12.63;;;-0.40;96.60;;;;;;5106654;28;20051;-74
2021/01/10 10:39:35;;;;;;;19.25;11.40;;;-0.40;95.80;;;;;;5092576;28;20024;-75
2021/01/10 10:42:01;;;;;;;21.52;11.23;;;-0.40;96.50;;;;;;5091995;28;20674;-76
2021/01/10 10:44:26;;;;;;;17.77;10.90;;;-0.30;96.40;;;;;;5088422;28;20048;-81
2021/01/10 10:46:54;;;;;;;16.98;9.95;;;-0.30;96.00;;;;;;5092571;28;20095;-82
2021/01/10 10:49:19;;;;;;;17.52;9.35;;;-0.20;93.50;;;;;;5069300;28;20472;-79
2021/01/10 10:51:45;;;;;;;15.70;9.60;;;-0.10;92.50;;;;;;5097079;28;20028;-74
2021/01/10 10:54:14;;;;;;;16.10;9.90;;;-0.10;92.60;;;;;;5063185;28;20028;-80
2021/01/10 10:56:40;;;;;;;14.68;9.20;;;0.00;91.80;;;;;;5089239;28;20441;-81
2021/01/10 10:59:06;;;;;;;16.02;9.60;;;0.10;91.80;;;;;;5079879;28;20115;-75
2021/01/10 11:01:46;;;;;;;19.85;9.57;;;0.20;90.70;;;;;;5071531;28;20107;-76
2021/01/10 11:04:12;;;;;;;15.95;8.77;;;0.20;90.40;;;;;;5072633;28;20024;-74
2021/01/10 11:06:38;;;;;;;16.30;8.40;;;0.20;90.30;;;;;;5082286;28;20117;-72
2021/01/10 11:09:06;;;;;;;15.13;9.70;;;0.20;90.30;;;;;;5091068;28;20103;-75
2021/01/10 11:11:40;;;;;;;16.42;9.93;;;0.20;89.40;;;;;;5083737;28;20100;-72
2021/01/10 11:14:07;;;;;;;18.48;10.52;;;0.20;90.50;;;;;;5090627;28;20554;-73
2021/01/10 11:16:34;;;;;;;15.95;8.82;;;0.20;91.20;;;;;;5074560;28;20036;-76
2021/01/10 11:19:01;;;;;;;18.05;10.95;;;0.20;91.40;;;;;;5083855;28;20428;-74
2021/01/10 11:21:28;;;;;;;15.68;8.98;;;0.30;91.20;;;;;;5063191;28;20020;-79
2021/01/10 11:23:54;;;;;;;17.48;10.20;;;0.30;90.80;;;;;;5072110;28;20085;-80
2021/01/10 11:26:20;;;;;;;17.55;10.48;;;0.40;90.10;;;;;;5073811;28;20020;-82
2021/01/10 11:28:45;;;;;;;16.42;9.95;;;0.50;89.80;;;;;;5076503;28;20042;-76
2021/01/10 11:31:11;;;;;;;18.70;10.05;;;0.50;88.60;;;;;;5075777;28;20067;-85
2021/01/10 11:33:38;;;;;;;16.80;9.93;;;0.60;90.00;;;;;;5075849;28;20377;-81
2021/01/10 11:36:06;;;;;;;16.92;10.35;;;0.60;89.70;;;;;;5074724;28;20478;-81
2021/01/10 11:38:32;;;;;;;18.42;10.77;;;0.60;90.20;;;;;;5093447;28;20028;-78
2021/01/10 11:40:58;;;;;;;17.23;10.10;;;0.70;89.50;;;;;;5095481;28;20027;-75
2021/01/10 11:43:23;;;;;;;17.38;9.73;;;0.80;88.10;;;;;;5095932;28;20044;-74
2021/01/10 11:45:49;;;;;;;15.07;9.93;;;0.90;87.10;;;;;;5094971;28;20063;-70
2021/01/10 11:48:15;;;;;;;16.38;9.98;;;0.90;87.70;;;;;;5095726;28;20461;-74
2021/01/10 11:50:41;;;;;;;16.55;9.52;;;0.90;85.70;;;;;;5095985;28;20107;-71
2021/01/10 11:53:07;;;;;;;15.57;9.65;;;0.90;86.30;;;;;;5094562;28;20047;-74
2021/01/10 11:55:35;;;;;;;21.38;9.65;;;1.00;87.20;;;;;;5092720;28;20028;-72
2021/01/10 11:58:01;;;;;;;15.63;9.88;;;1.00;85.40;;;;;;5073442;28;20031;-71
2021/01/10 12:00:27;;;;;;;14.52;9.63;;;1.10;86.20;;;;;;5056348;28;20025;-71
2021/01/10 12:02:53;;;;;;;15.40;9.27;;;1.10;87.20;;;;;;5074152;28;20378;-71
2021/01/10 12:05:18;;;;;;;21.05;8.63;;;1.10;87.20;;;;;;5075025;28;20510;-73
2021/01/10 12:07:44;;;;;;;14.32;8.65;;;1.20;86.60;;;;;;5085268;28;20028;-74
2021/01/10 12:10:10;;;;;;;13.85;8.73;;;1.40;83.60;;;;;;5094915;28;20027;-79
2021/01/10 12:12:36;;;;;;;14.75;8.85;;;1.40;83.20;;;;;;5095006;28;20534;-73
2021/01/10 12:15:01;;;;;;;15.23;8.55;;;1.50;83.00;;;;;;5094792;28;20093;-69
2021/01/10 12:17:27;;;;;;;17.50;8.10;;;1.60;82.30;;;;;;5094836;28;20036;-71
2021/01/10 12:19:52;;;;;;;12.25;6.57;;;1.70;81.40;;;;;;5094351;28;20024;-70
2021/01/10 12:22:18;;;;;;;10.82;6.78;;;1.70;79.60;;;;;;5094710;28;20024;-67
2021/01/10 12:24:44;;;;;;;9.85;6.63;;;1.70;78.70;;;;;;5095154;28;20023;-74
2021/01/10 12:27:11;;;;;;;10.63;6.78;;;1.70;78.00;;;;;;5094718;28;20102;-72
2021/01/10 12:29:37;;;;;;;11.55;7.45;;;1.60;78.50;;;;;;5094690;28;20465;-73
2021/01/10 12:32:03;;;;;;;10.57;6.35;;;1.60;78.70;;;;;;5093830;28;20035;-73
2021/01/10 12:34:29;;;;;;;9.23;6.25;;;1.50;79.10;;;;;;5094659;28;20426;-73
2021/01/10 12:36:54;;;;;;;10.55;6.50;;;1.50;79.10;;;;;;5094162;28;20491;-67
2021/01/10 12:39:20;;;;;;;12.82;7.45;;;1.40;79.40;;;;;;5076380;28;20024;-69